Las Vegas, Nevada
Traffic Map
Current Weather Conditions
Las Vegas, Nevada
Scattered Clouds
Scattered Clouds
15°
Feels Like: 15°
Wind Chill: 15° Ceiling: Unl
Heat Index: 15° Visibility: 10mi
Dew Point: -10° Wind: 0mph
Humidity: 17% Direction: ° ()
Pressure: 29.73in Gusts: 0mph
Raw Report DataKLAS 162156Z 00000KT 10SM FEW090 SCT120 SCT150 15/M10 A2973 RMK AO2 SLP060 T01501100
Traffic Incident Summary
Active as of:
Severity:
Category:
InformationThere was an issue retrieving the traffic information for this location. Please try a different location or try again shortly.
Advertisements